Time;durP1;ratioP1;P1;durP2;ratioP2;P2;SDS_P1;SDS_P2;PMS_P1;PMS_P2;Temp;Humidity;BMP_temperature;BMP_pressure;BME280_temperature;BME280_humidity;BME280_pressure;Samples;Min_cycle;Max_cycle;Signal;HPM_P1;HPM_P2
2023/01/15 00:00:08;;;;;;;2.83;0.50;;;9.70;92.50;;;;;;5033274;28;20041;-63
2023/01/15 00:02:35;;;;;;;1.10;0.40;;;9.70;92.40;;;;;;5031547;28;20049;-61
2023/01/15 00:05:07;;;;;;;0.82;0.40;;;9.70;92.40;;;;;;5035585;28;20224;-62
2023/01/15 00:07:34;;;;;;;0.63;0.30;;;9.80;92.30;;;;;;5038950;28;20045;-61
2023/01/15 00:10:01;;;;;;;0.70;0.30;;;9.80;92.50;;;;;;5035313;28;20412;-61
2023/01/15 00:12:35;;;;;;;1.33;0.30;;;9.80;92.50;;;;;;5036673;28;20091;-62
2023/01/15 00:15:02;;;;;;;0.93;0.28;;;9.80;92.50;;;;;;5038273;28;20071;-62
2023/01/15 00:17:31;;;;;;;0.75;0.30;;;9.80;92.40;;;;;;5039317;28;20137;-62
2023/01/15 00:19:58;;;;;;;1.17;0.45;;;9.70;92.30;;;;;;5031014;28;20064;-62
2023/01/15 00:22:25;;;;;;;0.93;0.35;;;9.80;92.40;;;;;;5035136;28;20076;-62
2023/01/15 00:27:39;;;;;;;0.77;0.20;;;9.80;92.30;;;;;;5036263;28;20385;-61
2023/01/15 00:30:10;;;;;;;0.90;0.40;;;9.80;92.20;;;;;;5035551;28;20103;-61
2023/01/15 00:32:39;;;;;;;1.20;0.40;;;9.80;92.30;;;;;;5038400;28;20045;-63
2023/01/15 00:35:08;;;;;;;1.42;0.57;;;9.90;92.30;;;;;;5037674;28;25438;-62
2023/01/15 00:37:35;;;;;;;1.60;0.63;;;9.90;92.30;;;;;;5038317;28;20136;-63
2023/01/15 00:40:04;;;;;;;1.35;0.52;;;9.90;92.20;;;;;;5034583;28;20126;-63
2023/01/15 00:42:30;;;;;;;2.83;0.90;;;9.90;92.30;;;;;;5047902;28;20056;-64
2023/01/15 00:44:57;;;;;;;1.60;0.60;;;9.80;92.30;;;;;;5051775;28;20045;-62
2023/01/15 00:47:24;;;;;;;2.33;0.75;;;9.80;92.30;;;;;;5047198;28;20049;-61
2023/01/15 00:49:52;;;;;;;2.45;0.98;;;9.90;92.30;;;;;;5059240;28;20067;-61
2023/01/15 00:52:19;;;;;;;1.73;0.50;;;9.90;92.50;;;;;;5058853;28;20046;-61
2023/01/15 00:54:48;;;;;;;2.20;0.68;;;9.90;92.50;;;;;;5049081;28;20068;-59
2023/01/15 00:57:14;;;;;;;2.13;0.70;;;9.90;92.50;;;;;;5054493;28;20918;-61
2023/01/15 00:59:42;;;;;;;1.52;0.65;;;9.90;92.50;;;;;;5048774;28;20070;-62
2023/01/15 01:02:09;;;;;;;2.72;0.90;;;9.90;92.60;;;;;;5068166;28;20050;-63
2023/01/15 01:04:37;;;;;;;1.92;0.70;;;9.90;92.60;;;;;;5044040;28;20262;-63
2023/01/15 01:07:05;;;;;;;1.23;0.55;;;9.90;92.70;;;;;;5049017;28;20041;-61
2023/01/15 01:09:32;;;;;;;1.33;0.40;;;9.90;92.80;;;;;;5055132;28;20067;-61
2023/01/15 01:11:59;;;;;;;1.23;0.38;;;9.90;92.80;;;;;;5050728;28;20057;-61
2023/01/15 01:14:26;;;;;;;1.63;0.30;;;9.90;92.70;;;;;;5046557;28;20057;-61
2023/01/15 01:16:53;;;;;;;0.90;0.30;;;9.90;92.70;;;;;;5046393;28;20045;-61
2023/01/15 01:19:22;;;;;;;0.95;0.38;;;9.90;92.80;;;;;;5050385;28;20048;-61
2023/01/15 01:21:50;;;;;;;1.25;0.40;;;9.90;92.70;;;;;;5057926;28;20465;-61
2023/01/15 01:24:20;;;;;;;1.40;0.40;;;9.90;92.70;;;;;;5045394;28;20065;-62
2023/01/15 01:26:48;;;;;;;;;;;9.90;92.60;;;;;;5059711;28;20488;-61
2023/01/15 01:29:17;;;;;;;1.25;0.30;;;9.90;92.70;;;;;;5060517;28;19995;-62
2023/01/15 01:31:44;;;;;;;1.05;0.50;;;9.90;92.70;;;;;;5042562;28;20091;-62
2023/01/15 01:34:12;;;;;;;0.68;0.20;;;9.90;92.80;;;;;;5053853;28;20052;-62
2023/01/15 01:36:40;;;;;;;0.40;0.20;;;9.90;92.80;;;;;;5053726;28;20044;-62
2023/01/15 01:39:12;;;;;;;1.73;0.35;;;9.90;92.80;;;;;;5042960;28;20056;-62
2023/01/15 01:41:40;;;;;;;0.75;0.20;;;9.90;92.80;;;;;;5055770;28;20061;-61
2023/01/15 01:44:28;;;;;;;0.20;0.20;;;10.00;92.80;;;;;;5062639;28;20059;-61
2023/01/15 01:46:55;;;;;;;1.92;0.40;;;9.90;92.80;;;;;;5048349;28;20123;-63
2023/01/15 01:49:24;;;;;;;0.30;0.20;;;9.90;92.90;;;;;;5050645;28;20055;-62
2023/01/15 01:51:54;;;;;;;0.30;0.20;;;9.90;93.00;;;;;;5051520;28;20040;-62
2023/01/15 01:54:25;;;;;;;0.93;0.30;;;10.00;93.10;;;;;;5047094;28;20044;-62
2023/01/15 01:56:54;;;;;;;0.32;0.15;;;9.90;92.90;;;;;;5040734;28;20132;-62
2023/01/15 01:59:22;;;;;;;0.10;0.10;;;10.00;93.10;;;;;;5054600;28;20048;-63
2023/01/15 02:01:50;;;;;;;1.23;0.20;;;9.90;93.00;;;;;;5046880;28;20112;-65
2023/01/15 02:04:21;;;;;;;0.93;0.20;;;10.00;93.10;;;;;;5052808;28;20049;-64
2023/01/15 02:06:48;;;;;;;0.35;0.10;;;10.00;93.00;;;;;;5051401;28;20044;-61
2023/01/15 02:09:15;;;;;;;0.20;0.10;;;10.00;93.00;;;;;;5046800;28;20049;-60
2023/01/15 02:11:42;;;;;;;0.52;0.10;;;10.00;93.10;;;;;;5048040;28;20080;-58
2023/01/15 02:14:16;;;;;;;0.10;0.10;;;9.90;93.00;;;;;;5043647;28;20042;-59
2023/01/15 02:16:48;;;;;;;0.22;0.10;;;10.00;93.00;;;;;;5055346;28;20049;-59
2023/01/15 02:19:28;;;;;;;0.45;0.20;;;10.00;93.00;;;;;;5047703;28;20079;-57
2023/01/15 02:22:04;;;;;;;2.08;0.35;;;10.00;93.10;;;;;;5048051;28;20160;-57
2023/01/15 02:24:40;;;;;;;0.55;0.10;;;10.00;93.00;;;;;;5047592;28;20160;-58
2023/01/15 02:27:16;;;;;;;0.20;0.10;;;9.90;92.40;;;;;;5049813;28;20064;-57
2023/01/15 02:29:51;;;;;;;0.35;0.10;;;9.90;92.20;;;;;;5058861;28;20057;-57
2023/01/15 02:32:28;;;;;;;0.10;0.10;;;9.90;92.10;;;;;;5042226;28;20049;-58
2023/01/15 02:35:01;;;;;;;0.25;0.20;;;9.80;91.80;;;;;;5039797;28;20041;-59
2023/01/15 02:37:34;;;;;;;0.38;0.10;;;9.70;91.40;;;;;;5036596;28;20053;-58
2023/01/15 02:40:03;;;;;;;0.20;0.10;;;9.70;91.20;;;;;;5038898;28;20069;-59
2023/01/15 02:42:36;;;;;;;0.45;0.10;;;9.60;90.60;;;;;;5035239;28;20057;-59
2023/01/15 02:45:05;;;;;;;0.80;0.10;;;9.50;90.30;;;;;;5044564;28;20439;-58
2023/01/15 02:47:36;;;;;;;0.20;0.10;;;9.40;89.80;;;;;;5036814;28;20053;-58
2023/01/15 02:50:09;;;;;;;0.45;0.20;;;9.40;89.80;;;;;;5035731;28;20073;-59
2023/01/15 02:52:44;;;;;;;0.40;0.28;;;9.40;90.00;;;;;;5032469;28;20056;-59
2023/01/15 02:55:17;;;;;;;0.50;0.20;;;9.20;89.00;;;;;;5035962;28;20063;-60
2023/01/15 02:57:48;;;;;;;0.20;0.10;;;9.20;89.20;;;;;;5056412;28;20091;-59
2023/01/15 03:00:19;;;;;;;2.00;0.28;;;9.20;89.50;;;;;;5059660;28;20071;-58
2023/01/15 03:02:51;;;;;;;3.22;0.47;;;9.10;88.60;;;;;;5051511;28;20044;-58
2023/01/15 03:05:23;;;;;;;7.60;2.90;;;9.00;88.90;;;;;;5048802;28;20041;-58
2023/01/15 03:07:54;;;;;;;7.10;2.60;;;9.10;88.50;;;;;;5054303;28;20057;-57
2023/01/15 03:10:32;;;;;;;4.70;2.10;;;9.10;88.40;;;;;;5046812;28;20144;-59
2023/01/15 03:13:04;;;;;;;3.78;1.30;;;9.00;87.70;;;;;;5052221;28;20048;-57
2023/01/15 03:18:43;;;;;;;1.17;0.40;;;8.70;87.40;;;;;;5067346;28;20114;-59
2023/01/15 03:21:14;;;;;;;0.10;0.10;;;8.70;87.00;;;;;;5040967;28;20076;-58
2023/01/15 03:23:52;;;;;;;0.52;0.10;;;8.70;87.20;;;;;;5052426;28;20049;-60
2023/01/15 03:26:19;;;;;;;0.63;0.13;;;8.70;87.50;;;;;;5044019;28;20082;-58
2023/01/15 03:28:49;;;;;;;1.88;0.38;;;8.70;87.20;;;;;;5060490;28;20077;-59
2023/01/15 03:31:16;;;;;;;1.00;0.40;;;8.60;86.80;;;;;;5072812;28;20511;-59
2023/01/15 03:33:44;;;;;;;0.30;0.20;;;8.60;87.00;;;;;;5052497;28;20045;-60
2023/01/15 03:36:15;;;;;;;0.30;0.20;;;8.50;86.90;;;;;;5039352;28;20052;-70
2023/01/15 03:38:49;;;;;;;0.63;0.22;;;8.50;87.10;;;;;;5055801;28;20499;-68
2023/01/15 03:41:34;;;;;;;1.33;0.40;;;8.50;87.00;;;;;;5038721;28;20515;-58
2023/01/15 03:44:14;;;;;;;0.57;0.20;;;8.50;87.10;;;;;;5034879;28;20052;-58
2023/01/15 03:46:54;;;;;;;0.32;0.20;;;8.50;87.10;;;;;;5039836;28;20049;-60
2023/01/15 03:49:26;;;;;;;0.57;0.20;;;8.50;87.00;;;;;;5038112;28;20102;-59
2023/01/15 03:52:00;;;;;;;0.10;0.10;;;8.50;87.20;;;;;;5038473;28;20041;-66
2023/01/15 03:54:39;;;;;;;0.50;0.13;;;8.40;87.60;;;;;;5037006;28;20053;-66
2023/01/15 03:57:12;;;;;;;0.10;0.10;;;8.40;87.70;;;;;;5038836;28;20099;-66
2023/01/15 03:59:48;;;;;;;0.25;0.10;;;8.40;87.20;;;;;;5054216;28;20052;-67
2023/01/15 04:02:18;;;;;;;0.28;0.10;;;8.40;87.10;;;;;;5047915;28;20087;-60
2023/01/15 04:04:47;;;;;;;0.38;0.10;;;8.40;86.60;;;;;;5034800;28;20060;-60
2023/01/15 04:07:15;;;;;;;0.10;0.10;;;8.30;86.80;;;;;;5038976;28;20071;-62
2023/01/15 04:09:42;;;;;;;0.20;0.05;;;8.30;86.30;;;;;;5044701;28;20498;-63
2023/01/15 04:12:11;;;;;;;0.20;0.10;;;8.20;86.10;;;;;;5043103;28;20060;-59
2023/01/15 04:14:47;;;;;;;0.60;0.10;;;8.30;86.70;;;;;;5045024;28;20044;-61
2023/01/15 04:17:20;;;;;;;0.03;0.03;;;8.20;86.10;;;;;;5047975;28;20122;-66
2023/01/15 04:19:47;;;;;;;1.55;0.10;;;8.20;86.40;;;;;;5036920;28;20433;-69
2023/01/15 04:22:14;;;;;;;0.10;0.10;;;8.10;86.20;;;;;;5029867;28;20464;-64
2023/01/15 04:24:41;;;;;;;0.38;0.10;;;8.20;86.30;;;;;;5037717;28;20049;-64
2023/01/15 04:27:08;;;;;;;0.30;0.10;;;8.10;85.80;;;;;;5037372;28;20063;-60
2023/01/15 04:29:35;;;;;;;0.10;0.05;;;8.00;86.00;;;;;;5037845;28;20170;-61
2023/01/15 04:32:04;;;;;;;0.00;0.00;;;7.90;85.80;;;;;;5049463;28;20102;-61
2023/01/15 04:34:33;;;;;;;0.43;0.20;;;7.90;86.00;;;;;;5036713;28;20063;-59
2023/01/15 04:37:00;;;;;;;0.13;0.10;;;8.00;85.70;;;;;;5039317;28;20049;-60
2023/01/15 04:39:28;;;;;;;0.00;0.00;;;7.90;86.00;;;;;;5039632;28;20083;-61
2023/01/15 04:44:40;;;;;;;0.10;0.10;;;7.90;86.00;;;;;;5034453;28;20076;-68
2023/01/15 04:47:08;;;;;;;0.03;0.03;;;7.70;85.60;;;;;;5035081;28;20037;-64
2023/01/15 04:49:35;;;;;;;0.98;0.10;;;7.80;85.50;;;;;;5037945;28;20231;-64
2023/01/15 04:52:02;;;;;;;0.08;0.08;;;7.70;85.40;;;;;;5036803;28;20099;-59
2023/01/15 04:54:29;;;;;;;0.10;0.10;;;7.70;85.30;;;;;;5036056;28;20063;-60
2023/01/15 04:56:56;;;;;;;0.20;0.10;;;7.70;85.00;;;;;;5039160;28;20060;-59
2023/01/15 04:59:26;;;;;;;1.17;0.10;;;7.70;85.00;;;;;;5026694;28;20105;-59
2023/01/15 05:01:53;;;;;;;0.57;0.10;;;7.60;84.70;;;;;;5040681;28;20076;-59
2023/01/15 05:04:22;;;;;;;0.22;0.17;;;7.50;85.00;;;;;;5031260;28;20056;-60
2023/01/15 05:06:49;;;;;;;0.63;0.20;;;7.50;85.00;;;;;;5024368;28;20045;-60
2023/01/15 05:09:16;;;;;;;0.75;0.10;;;7.50;85.20;;;;;;5031938;28;20037;-59
2023/01/15 05:11:43;;;;;;;0.60;0.17;;;7.50;84.90;;;;;;5034761;28;20037;-59
2023/01/15 05:14:10;;;;;;;0.30;0.10;;;7.40;85.00;;;;;;5037324;28;20048;-59
2023/01/15 05:16:38;;;;;;;0.10;0.10;;;7.40;84.90;;;;;;5035178;28;20049;-60
2023/01/15 05:19:07;;;;;;;0.20;0.08;;;7.40;84.80;;;;;;5035192;28;20094;-61
2023/01/15 05:21:37;;;;;;;0.68;0.10;;;7.40;84.90;;;;;;5034281;28;20467;-60
2023/01/15 05:24:07;;;;;;;0.60;0.10;;;7.30;84.60;;;;;;5036646;28;20060;-60
2023/01/15 05:26:35;;;;;;;;;;;7.30;85.00;;;;;;5034438;28;20167;-61
2023/01/15 05:29:02;;;;;;;1.13;0.20;;;7.20;85.20;;;;;;5035043;28;19928;-60
2023/01/15 05:31:30;;;;;;;0.73;0.15;;;7.10;85.50;;;;;;5039547;28;20496;-58
2023/01/15 05:33:57;;;;;;;0.65;0.20;;;7.20;85.70;;;;;;5038289;28;20163;-60
2023/01/15 05:36:26;;;;;;;0.45;0.25;;;7.20;85.20;;;;;;5041358;28;20049;-59
2023/01/15 05:38:56;;;;;;;0.52;0.10;;;7.10;85.20;;;;;;5039011;28;20044;-60
2023/01/15 05:44:10;;;;;;;1.42;0.20;;;7.20;85.10;;;;;;5037874;28;20488;-59
2023/01/15 05:46:39;;;;;;;0.20;0.00;;;7.10;85.20;;;;;;5040384;28;20047;-60
2023/01/15 05:49:08;;;;;;;0.52;0.10;;;7.10;85.50;;;;;;5038375;28;20052;-59
2023/01/15 05:51:35;;;;;;;0.20;0.10;;;7.10;85.70;;;;;;5042351;28;20610;-60
2023/01/15 05:54:04;;;;;;;1.15;0.10;;;7.10;85.70;;;;;;5045783;28;20094;-60
2023/01/15 05:56:31;;;;;;;0.10;0.05;;;7.00;85.70;;;;;;5047228;28;20060;-59
2023/01/15 05:58:58;;;;;;;0.55;0.10;;;7.00;85.90;;;;;;5049520;28;20132;-59
2023/01/15 06:01:25;;;;;;;0.43;0.20;;;7.00;85.70;;;;;;5053334;28;20064;-60
2023/01/15 06:03:52;;;;;;;1.75;0.20;;;7.00;85.80;;;;;;5043191;28;20052;-59
2023/01/15 06:06:19;;;;;;;0.28;0.10;;;7.00;85.60;;;;;;5040697;28;20602;-59
2023/01/15 06:08:47;;;;;;;1.23;0.10;;;7.00;85.80;;;;;;5041105;28;20068;-59
2023/01/15 06:11:15;;;;;;;0.75;0.20;;;6.90;86.00;;;;;;5037413;28;20507;-60
2023/01/15 06:13:42;;;;;;;0.70;0.10;;;6.90;86.20;;;;;;5041561;28;20053;-59
2023/01/15 06:16:10;;;;;;;0.52;0.10;;;6.90;86.20;;;;;;5036651;28;20128;-58
2023/01/15 06:18:37;;;;;;;0.10;0.10;;;6.90;86.40;;;;;;5039821;28;20049;-58
2023/01/15 06:21:05;;;;;;;0.10;0.10;;;6.90;86.60;;;;;;5038187;28;20056;-60
2023/01/15 06:23:32;;;;;;;0.63;0.20;;;6.90;86.60;;;;;;5042787;28;20534;-58
2023/01/15 06:26:02;;;;;;;1.17;0.20;;;6.90;86.60;;;;;;5054188;28;20068;-58
2023/01/15 06:28:32;;;;;;;0.40;0.10;;;6.90;86.30;;;;;;5058879;28;20095;-58
2023/01/15 06:30:59;;;;;;;0.10;0.10;;;6.90;86.50;;;;;;5048349;28;20499;-60
2023/01/15 06:33:26;;;;;;;0.70;0.10;;;6.80;86.50;;;;;;5053346;28;20056;-60
2023/01/15 06:35:52;;;;;;;0.00;0.00;;;6.80;86.60;;;;;;5048649;28;20041;-68
2023/01/15 06:38:19;;;;;;;0.65;0.20;;;6.80;86.60;;;;;;5047186;28;20492;-68
2023/01/15 06:40:46;;;;;;;1.67;0.20;;;6.80;86.70;;;;;;5046695;28;20045;-69
2023/01/15 06:48:43;;;;;;;1.05;0.20;;;6.90;86.20;;;;;;5043839;28;20053;-68
2023/01/15 06:51:14;;;;;;;0.47;0.10;;;6.70;86.40;;;;;;5049915;28;20052;-69
2023/01/15 06:53:41;;;;;;;0.47;0.20;;;6.80;86.30;;;;;;5052848;28;20573;-68
2023/01/15 06:56:08;;;;;;;1.08;0.10;;;6.70;86.50;;;;;;5045952;28;20538;-68
2023/01/15 06:58:35;;;;;;;0.60;0.10;;;6.70;86.70;;;;;;5044529;28;20550;-68
2023/01/15 07:01:09;;;;;;;0.98;0.20;;;6.70;86.50;;;;;;5048807;28;20053;-60
2023/01/15 07:03:36;;;;;;;0.40;0.20;;;6.70;86.50;;;;;;5046703;28;20518;-60
2023/01/15 07:06:06;;;;;;;0.35;0.10;;;6.70;86.40;;;;;;5039067;28;20061;-59
2023/01/15 07:08:33;;;;;;;0.17;0.10;;;6.60;86.60;;;;;;5037080;28;20054;-60
2023/01/15 07:11:03;;;;;;;1.80;0.20;;;6.60;86.60;;;;;;5038195;28;20060;-59
2023/01/15 07:13:30;;;;;;;0.40;0.10;;;6.60;86.60;;;;;;5036996;28;20061;-59
2023/01/15 07:15:59;;;;;;;0.45;0.10;;;6.70;86.50;;;;;;5038330;28;20033;-65
2023/01/15 07:18:28;;;;;;;0.38;0.20;;;6.60;86.60;;;;;;5038823;28;20058;-63
2023/01/15 07:20:56;;;;;;;1.95;0.20;;;6.70;86.60;;;;;;5038156;28;20048;-60
2023/01/15 07:23:23;;;;;;;0.90;0.32;;;6.70;86.80;;;;;;5035890;28;20053;-61
2023/01/15 07:25:52;;;;;;;0.40;0.20;;;6.70;86.30;;;;;;5045639;28;20541;-68
2023/01/15 07:28:19;;;;;;;1.20;0.20;;;6.70;86.20;;;;;;5035864;28;20049;-70
2023/01/15 07:30:46;;;;;;;0.90;0.20;;;6.70;86.50;;;;;;5033732;28;20404;-69
2023/01/15 07:33:13;;;;;;;0.80;0.20;;;6.60;86.50;;;;;;5037861;28;20053;-69
2023/01/15 07:35:42;;;;;;;0.90;0.20;;;6.70;86.60;;;;;;5039217;28;20504;-59
2023/01/15 07:38:08;;;;;;;1.00;0.20;;;6.60;86.50;;;;;;5036816;28;20060;-60
2023/01/15 07:40:37;;;;;;;0.40;0.15;;;6.60;86.30;;;;;;5037239;28;20045;-61
2023/01/15 07:51:19;;;;;;;0.22;0.20;;;6.50;86.10;;;;;;5046137;28;20549;-61
2023/01/15 07:53:51;;;;;;;0.93;0.30;;;6.50;85.80;;;;;;5036777;28;20057;-60
2023/01/15 07:56:19;;;;;;;0.88;0.30;;;6.50;85.30;;;;;;5036232;28;20121;-68
2023/01/15 07:58:49;;;;;;;2.13;0.45;;;6.50;85.20;;;;;;5037942;28;20064;-67
2023/01/15 08:01:16;;;;;;;0.47;0.20;;;6.50;85.40;;;;;;5048375;28;20065;-68
2023/01/15 08:03:42;;;;;;;0.85;0.30;;;6.50;85.30;;;;;;5045492;28;20143;-69
2023/01/15 08:06:09;;;;;;;1.98;0.30;;;6.50;84.70;;;;;;5046758;28;20520;-63
2023/01/15 08:08:38;;;;;;;0.70;0.17;;;6.40;85.20;;;;;;5054017;28;20052;-65
2023/01/15 08:16:36;;;;;;;1.13;0.30;;;6.30;85.00;;;;;;5044013;28;20044;-70
2023/01/15 08:19:03;;;;;;;0.60;0.30;;;6.40;84.70;;;;;;5038166;28;20063;-68
2023/01/15 08:21:30;;;;;;;1.25;0.13;;;6.30;84.80;;;;;;5034901;28;20076;-60
2023/01/15 08:23:58;;;;;;;0.85;0.20;;;6.30;84.70;;;;;;5038049;28;20049;-61
2023/01/15 08:26:26;;;;;;;1.30;0.40;;;6.30;84.70;;;;;;5037925;28;20116;-60
2023/01/15 08:28:53;;;;;;;1.48;0.38;;;6.30;84.90;;;;;;5039863;28;20054;-59
2023/01/15 08:31:20;;;;;;;0.70;0.30;;;6.20;85.10;;;;;;5038853;28;20067;-60
2023/01/15 08:33:46;;;;;;;0.50;0.22;;;6.20;85.10;;;;;;5035409;28;20060;-60
2023/01/15 08:36:14;;;;;;;1.05;0.40;;;6.20;85.00;;;;;;5036638;28;20069;-60
2023/01/15 08:38:41;;;;;;;1.83;0.50;;;6.10;85.50;;;;;;5035775;28;20095;-60
2023/01/15 08:41:10;;;;;;;2.17;0.55;;;6.20;85.50;;;;;;5039450;28;20045;-64
2023/01/15 08:43:37;;;;;;;1.60;0.45;;;6.20;85.40;;;;;;5035260;28;20045;-63
2023/01/15 08:46:05;;;;;;;1.45;0.50;;;6.20;85.40;;;;;;5028314;28;20037;-59
2023/01/15 08:48:33;;;;;;;1.58;0.30;;;6.10;85.20;;;;;;5038166;28;20061;-60
2023/01/15 08:51:04;;;;;;;0.17;0.10;;;6.20;85.50;;;;;;5032830;28;20041;-60
2023/01/15 08:53:38;;;;;;;0.73;0.30;;;6.20;85.50;;;;;;5033430;28;20061;-61
2023/01/15 08:56:11;;;;;;;0.95;0.13;;;6.10;85.60;;;;;;5037195;28;20053;-68
2023/01/15 08:58:39;;;;;;;1.42;0.30;;;6.10;85.50;;;;;;5038093;28;20057;-69
2023/01/15 09:01:08;;;;;;;1.05;0.20;;;6.10;85.70;;;;;;5031023;28;20053;-62
2023/01/15 09:03:36;;;;;;;1.02;0.30;;;6.10;85.80;;;;;;5051764;28;20049;-64
2023/01/15 09:06:04;;;;;;;1.00;0.32;;;6.10;86.00;;;;;;5038400;28;20056;-64
2023/01/15 09:08:31;;;;;;;0.95;0.43;;;6.10;86.20;;;;;;5039422;28;20150;-64
2023/01/15 09:10:59;;;;;;;1.48;0.47;;;6.00;86.40;;;;;;5042427;28;20068;-64
2023/01/15 09:13:29;;;;;;;;;;;6.00;86.40;;;;;;5044445;28;20067;-63
2023/01/15 09:16:01;;;;;;;0.80;0.32;;;6.00;86.50;;;;;;5041423;28;19921;-63
2023/01/15 09:18:28;;;;;;;0.30;0.22;;;6.00;86.30;;;;;;5044533;28;20049;-64
2023/01/15 09:20:56;;;;;;;1.42;0.50;;;6.00;86.60;;;;;;5042493;28;20058;-60
2023/01/15 09:23:23;;;;;;;0.73;0.38;;;6.00;86.80;;;;;;5034274;28;20052;-59
2023/01/15 09:25:53;;;;;;;1.48;0.40;;;6.00;87.00;;;;;;5028183;28;20056;-61
2023/01/15 09:28:20;;;;;;;1.15;0.45;;;6.00;87.00;;;;;;5053208;28;20045;-61
2023/01/15 09:30:47;;;;;;;1.33;0.40;;;6.00;87.00;;;;;;5040828;28;20050;-66
2023/01/15 09:33:17;;;;;;;2.05;0.43;;;6.10;86.70;;;;;;5041056;28;20041;-60
2023/01/15 09:35:45;;;;;;;1.08;0.40;;;6.10;86.80;;;;;;5041761;28;20057;-60
2023/01/15 09:38:13;;;;;;;1.70;0.55;;;6.10;87.10;;;;;;5038440;28;20049;-59
2023/01/15 09:40:50;;;;;;;1.85;0.50;;;6.10;87.20;;;;;;5038083;28;20537;-59
2023/01/15 09:43:30;;;;;;;3.13;0.55;;;6.10;87.20;;;;;;5050047;28;20048;-59
2023/01/15 09:46:02;;;;;;;2.22;0.50;;;6.10;87.50;;;;;;5047389;28;20076;-64
2023/01/15 09:48:37;;;;;;;;;;;6.20;87.00;;;;;;5050422;28;20077;-61
2023/01/15 09:51:15;;;;;;;0.40;0.25;;;6.20;87.00;;;;;;5049074;28;20356;-64
2023/01/15 09:54:05;;;;;;;;;;;6.20;87.00;;;;;;5052528;28;20049;-60
2023/01/15 09:56:36;;;;;;;2.65;0.70;;;6.20;86.90;;;;;;5045447;28;19920;-60
2023/01/15 09:59:14;;;;;;;0.75;0.30;;;6.20;87.10;;;;;;5051850;28;20079;-60
2023/01/15 10:01:43;;;;;;;1.25;0.40;;;6.20;86.90;;;;;;5053858;28;20053;-63
2023/01/15 10:04:27;;;;;;;0.90;0.30;;;6.30;86.80;;;;;;5052193;28;20105;-63
2023/01/15 10:07:00;;;;;;;1.92;0.40;;;6.30;86.90;;;;;;5048287;28;20049;-63
2023/01/15 10:09:33;;;;;;;1.90;0.40;;;6.30;86.80;;;;;;5049176;28;20060;-64
2023/01/15 10:14:57;;;;;;;1.40;0.50;;;6.30;87.00;;;;;;5044900;28;20045;-68
2023/01/15 10:17:29;;;;;;;1.75;0.40;;;6.30;87.10;;;;;;5048035;28;20049;-68
2023/01/15 10:19:58;;;;;;;0.68;0.30;;;6.30;86.80;;;;;;5047782;28;20048;-69
2023/01/15 10:22:42;;;;;;;1.77;0.47;;;6.40;87.10;;;;;;5049361;28;20041;-68
2023/01/15 10:25:15;;;;;;;1.58;0.40;;;6.40;86.90;;;;;;5047938;28;20053;-68
2023/01/15 10:27:47;;;;;;;0.70;0.30;;;6.30;87.00;;;;;;5044939;28;20061;-69
2023/01/15 10:30:17;;;;;;;1.30;0.30;;;6.40;87.00;;;;;;5052925;28;20136;-61
2023/01/15 10:32:50;;;;;;;2.08;0.40;;;6.30;87.10;;;;;;5053172;28;20049;-65
2023/01/15 10:35:31;;;;;;;1.80;0.30;;;6.40;87.00;;;;;;5046148;28;20124;-61
2023/01/15 10:38:06;;;;;;;0.90;0.30;;;6.40;86.70;;;;;;5035187;28;20048;-61
2023/01/15 10:41:07;;;;;;;2.42;0.55;;;6.40;86.90;;;;;;5037226;28;20080;-61
2023/01/15 10:43:46;;;;;;;0.45;0.20;;;6.40;86.60;;;;;;5042948;28;20072;-60
2023/01/15 10:46:16;;;;;;;2.10;0.30;;;6.40;86.40;;;;;;5046656;28;20496;-60
2023/01/15 10:48:46;;;;;;;1.55;0.40;;;6.40;86.60;;;;;;5036867;28;20089;-60
2023/01/15 10:51:17;;;;;;;1.15;0.40;;;6.40;86.70;;;;;;5039112;28;20040;-69
2023/01/15 10:53:50;;;;;;;2.30;0.50;;;6.40;86.50;;;;;;5036751;28;20045;-69
2023/01/15 10:56:28;;;;;;;0.60;0.30;;;6.40;86.50;;;;;;5053981;28;20052;-68
2023/01/15 10:59:04;;;;;;;0.68;0.20;;;6.40;86.30;;;;;;5047749;28;20381;-68
2023/01/15 11:01:32;;;;;;;0.38;0.20;;;6.40;86.50;;;;;;5041771;28;20186;-67
2023/01/15 11:04:00;;;;;;;0.70;0.30;;;6.40;86.60;;;;;;5045758;28;20372;-68
2023/01/15 11:06:32;;;;;;;0.57;0.20;;;6.40;86.50;;;;;;5038129;28;20054;-68
2023/01/15 11:09:00;;;;;;;2.03;0.40;;;6.50;86.50;;;;;;5039006;28;20075;-69
2023/01/15 11:19:35;;;;;;;0.45;0.30;;;6.50;86.30;;;;;;5035321;28;20052;-69
2023/01/15 11:20:16;;;;;;;1.27;0.30;;;6.50;86.40;;;;;;5055919;28;20546;-70
2023/01/15 11:22:44;;;;;;;0.20;0.17;;;6.50;86.50;;;;;;5052671;28;20049;-69
2023/01/15 11:25:12;;;;;;;0.63;0.30;;;6.50;86.40;;;;;;5056736;28;20060;-68
2023/01/15 11:27:39;;;;;;;1.65;0.35;;;6.50;86.40;;;;;;5055836;28;20055;-69
2023/01/15 11:30:25;;;;;;;1.13;0.50;;;6.50;86.50;;;;;;5057262;28;20052;-68
2023/01/15 11:32:56;;;;;;;0.80;0.40;;;6.50;86.30;;;;;;5058156;28;20049;-68
2023/01/15 11:35:23;;;;;;;2.43;0.67;;;6.50;86.40;;;;;;5058770;28;20044;-69
2023/01/15 11:38:02;;;;;;;1.65;0.50;;;6.60;86.60;;;;;;5057733;28;20071;-70
2023/01/15 11:40:33;;;;;;;1.92;0.70;;;6.60;86.40;;;;;;5057324;28;20061;-69
2023/01/15 11:51:29;;;;;;;1.73;0.50;;;6.60;86.10;;;;;;5033729;28;20475;-61
2023/01/15 11:54:02;;;;;;;3.30;0.65;;;6.60;86.00;;;;;;5036631;28;20052;-61
2023/01/15 11:56:31;;;;;;;2.30;0.65;;;6.70;86.00;;;;;;5036408;28;20474;-61
2023/01/15 11:59:02;;;;;;;2.67;0.82;;;6.70;85.90;;;;;;5035804;28;20041;-60
2023/01/15 12:01:31;;;;;;;2.00;0.60;;;6.70;86.00;;;;;;5050450;28;20053;-59
2023/01/15 12:04:00;;;;;;;2.80;0.70;;;6.70;86.00;;;;;;5044089;28;20057;-57
2023/01/15 12:06:30;;;;;;;1.48;0.50;;;6.70;85.80;;;;;;5037838;28;20084;-60
2023/01/15 12:09:04;;;;;;;1.83;0.57;;;6.70;85.70;;;;;;5038662;28;20053;-61
2023/01/15 12:11:52;;;;;;;1.67;0.30;;;6.70;85.70;;;;;;5033613;28;20057;-59
2023/01/15 12:14:39;;;;;;;1.35;0.40;;;6.70;85.70;;;;;;5045494;28;20068;-59
2023/01/15 12:17:20;;;;;;;2.05;0.70;;;6.70;85.60;;;;;;5043423;28;20115;-64
2023/01/15 12:19:57;;;;;;;1.52;0.60;;;6.70;85.40;;;;;;5055433;28;20060;-64
2023/01/15 12:22:34;;;;;;;3.28;0.50;;;6.70;85.20;;;;;;5033004;28;20052;-63
2023/01/15 12:25:30;;;;;;;1.20;0.30;;;6.70;84.90;;;;;;5034625;28;20080;-63
2023/01/15 12:28:06;;;;;;;1.30;0.40;;;6.80;84.80;;;;;;5032360;28;20055;-61
2023/01/15 12:30:41;;;;;;;2.17;0.50;;;6.80;84.70;;;;;;5034626;28;20064;-61
2023/01/15 12:33:19;;;;;;;1.45;0.30;;;6.80;84.40;;;;;;5036307;28;20049;-61
2023/01/15 12:35:55;;;;;;;0.57;0.25;;;6.80;84.40;;;;;;5037345;28;20094;-68
2023/01/15 12:38:30;;;;;;;0.80;0.30;;;6.80;84.10;;;;;;5034628;28;20045;-68
2023/01/15 12:41:01;;;;;;;2.25;0.30;;;6.80;84.20;;;;;;5034810;28;20047;-60
2023/01/15 12:46:17;;;;;;;0.95;0.30;;;6.80;84.00;;;;;;5034482;28;20049;-61
2023/01/15 12:48:50;;;;;;;2.50;0.52;;;6.80;84.00;;;;;;5054227;28;20068;-61
2023/01/15 12:51:27;;;;;;;1.65;0.50;;;6.80;84.00;;;;;;5046994;28;20056;-58
2023/01/15 12:54:00;;;;;;;2.78;0.40;;;6.90;84.00;;;;;;5036920;28;20120;-59
2023/01/15 12:56:36;;;;;;;1.13;0.40;;;6.80;83.90;;;;;;5048300;28;20087;-64
2023/01/15 12:59:11;;;;;;;2.35;0.40;;;6.80;83.60;;;;;;5046356;28;20041;-63
2023/01/15 13:01:48;;;;;;;2.53;0.45;;;6.80;83.30;;;;;;5042979;28;20053;-60
2023/01/15 13:04:21;;;;;;;1.40;0.47;;;6.80;83.10;;;;;;5033970;28;20057;-60
2023/01/15 13:06:53;;;;;;;1.20;0.28;;;6.80;83.00;;;;;;5034031;28;20041;-60
2023/01/15 13:09:36;;;;;;;2.75;0.57;;;6.80;82.90;;;;;;5033502;28;20499;-60
2023/01/15 13:12:12;;;;;;;2.72;0.80;;;6.80;83.00;;;;;;5034060;28;20144;-69
2023/01/15 13:14:39;;;;;;;4.05;0.70;;;6.80;83.00;;;;;;5035677;28;20057;-69
2023/01/15 13:17:11;;;;;;;2.30;0.50;;;6.80;83.00;;;;;;5033478;28;21292;-59
2023/01/15 13:19:49;;;;;;;2.40;0.80;;;6.80;82.90;;;;;;5036190;28;20124;-59
2023/01/15 13:22:22;;;;;;;1.88;0.60;;;6.80;82.80;;;;;;5049850;28;20040;-61
2023/01/15 13:25:06;;;;;;;2.28;0.70;;;6.90;82.80;;;;;;5043647;28;20053;-60
2023/01/15 13:27:46;;;;;;;2.00;0.50;;;6.90;82.50;;;;;;5044268;28;20455;-60
2023/01/15 13:30:29;;;;;;;3.57;0.50;;;6.80;82.60;;;;;;5047606;28;20068;-60
2023/01/15 13:33:05;;;;;;;1.55;0.60;;;6.80;82.60;;;;;;5045417;28;20482;-58
2023/01/15 13:35:36;;;;;;;2.35;0.60;;;6.80;82.40;;;;;;5043315;28;20053;-60
2023/01/15 13:38:07;;;;;;;1.67;0.40;;;6.80;82.50;;;;;;5045531;28;20049;-60
2023/01/15 13:40:36;;;;;;;4.13;0.50;;;6.80;82.50;;;;;;5040954;28;20055;-70
2023/01/15 13:43:08;;;;;;;2.13;0.77;;;6.80;82.30;;;;;;5043601;28;20052;-68
2023/01/15 13:45:39;;;;;;;4.60;1.08;;;6.80;82.50;;;;;;5042623;28;20053;-68
2023/01/15 13:48:12;;;;;;;5.25;1.58;;;6.80;82.30;;;;;;5034556;28;20395;-67
2023/01/15 13:50:42;;;;;;;4.53;1.20;;;6.80;82.30;;;;;;5038994;28;20049;-62
2023/01/15 13:53:17;;;;;;;2.97;1.02;;;6.80;82.00;;;;;;5038024;28;20052;-65
2023/01/15 13:55:52;;;;;;;3.28;1.20;;;6.80;82.40;;;;;;5037308;28;20049;-63
2023/01/15 13:58:25;;;;;;;2.20;0.70;;;6.80;82.20;;;;;;5038181;28;20065;-64
2023/01/15 14:01:02;;;;;;;2.17;0.80;;;6.80;82.10;;;;;;5041612;28;20060;-62
2023/01/15 14:03:31;;;;;;;3.80;0.98;;;6.80;82.00;;;;;;5040647;28;20060;-61
2023/01/15 14:06:00;;;;;;;3.78;0.70;;;6.80;82.00;;;;;;5038015;28;20046;-59